sensor_id;sensor_type;location;lat;lon;timestamp;P1;durP1;ratioP1;P2;durP2;ratioP2
59006;SDS011;44792;52.760;6.726;2022-08-21T00:00:24;8.57;;;4.10;;
59006;SDS011;44792;52.760;6.726;2022-08-21T00:02:55;13.23;;;4.38;;
59006;SDS011;44792;52.760;6.726;2022-08-21T00:05:24;9.13;;;4.50;;
59006;SDS011;44792;52.760;6.726;2022-08-21T00:07:50;12.15;;;4.75;;
59006;SDS011;44792;52.760;6.726;2022-08-21T00:10:16;6.82;;;4.28;;
59006;SDS011;44792;52.760;6.726;2022-08-21T00:12:42;11.82;;;4.88;;
59006;SDS011;44792;52.760;6.726;2022-08-21T00:15:09;10.60;;;4.55;;
59006;SDS011;44792;52.760;6.726;2022-08-21T00:17:36;8.27;;;4.30;;
59006;SDS011;44792;52.760;6.726;2022-08-21T00:20:03;11.80;;;5.40;;
59006;SDS011;44792;52.760;6.726;2022-08-21T00:22:31;11.70;;;5.35;;
59006;SDS011;44792;52.760;6.726;2022-08-21T00:24:57;10.63;;;5.00;;
59006;SDS011;44792;52.760;6.726;2022-08-21T00:27:23;10.43;;;5.32;;
59006;SDS011;44792;52.760;6.726;2022-08-21T00:29:48;15.02;;;5.22;;
59006;SDS011;44792;52.760;6.726;2022-08-21T00:32:19;10.95;;;5.18;;
59006;SDS011;44792;52.760;6.726;2022-08-21T00:34:48;11.45;;;5.22;;
59006;SDS011;44792;52.760;6.726;2022-08-21T00:37:14;11.20;;;4.95;;
59006;SDS011;44792;52.760;6.726;2022-08-21T00:39:40;12.43;;;5.15;;
59006;SDS011;44792;52.760;6.726;2022-08-21T00:42:06;19.58;;;5.47;;
59006;SDS011;44792;52.760;6.726;2022-08-21T00:44:31;9.40;;;5.10;;
59006;SDS011;44792;52.760;6.726;2022-08-21T00:46:57;13.23;;;5.88;;
59006;SDS011;44792;52.760;6.726;2022-08-21T00:49:23;12.38;;;5.15;;
59006;SDS011;44792;52.760;6.726;2022-08-21T00:51:49;9.35;;;5.20;;
59006;SDS011;44792;52.760;6.726;2022-08-21T00:54:18;9.18;;;4.85;;
59006;SDS011;44792;52.760;6.726;2022-08-21T00:56:48;12.27;;;5.88;;
59006;SDS011;44792;52.760;6.726;2022-08-21T01:01:45;8.68;;;5.40;;
59006;SDS011;44792;52.760;6.726;2022-08-21T01:04:11;14.35;;;5.80;;
59006;SDS011;44792;52.760;6.726;2022-08-21T01:06:37;12.73;;;6.00;;
59006;SDS011;44792;52.760;6.726;2022-08-21T01:09:03;11.10;;;6.10;;
59006;SDS011;44792;52.760;6.726;2022-08-21T01:11:29;8.18;;;5.05;;
59006;SDS011;44792;52.760;6.726;2022-08-21T01:13:55;8.68;;;5.32;;
59006;SDS011;44792;52.760;6.726;2022-08-21T01:16:21;8.95;;;4.90;;
59006;SDS011;44792;52.760;6.726;2022-08-21T01:18:48;8.02;;;5.05;;
59006;SDS011;44792;52.760;6.726;2022-08-21T01:21:16;8.85;;;4.28;;
59006;SDS011;44792;52.760;6.726;2022-08-21T01:23:45;8.18;;;4.70;;
59006;SDS011;44792;52.760;6.726;2022-08-21T01:26:15;7.50;;;4.40;;
59006;SDS011;44792;52.760;6.726;2022-08-21T01:28:48;7.15;;;4.00;;
59006;SDS011;44792;52.760;6.726;2022-08-21T01:31:26;5.13;;;4.32;;
59006;SDS011;44792;52.760;6.726;2022-08-21T01:33:53;9.95;;;4.38;;
59006;SDS011;44792;52.760;6.726;2022-08-21T01:36:20;8.15;;;4.68;;
59006;SDS011;44792;52.760;6.726;2022-08-21T01:38:47;7.90;;;4.63;;
59006;SDS011;44792;52.760;6.726;2022-08-21T01:41:13;9.88;;;4.75;;
59006;SDS011;44792;52.760;6.726;2022-08-21T01:43:39;8.38;;;4.90;;
59006;SDS011;44792;52.760;6.726;2022-08-21T01:46:06;9.57;;;5.18;;
59006;SDS011;44792;52.760;6.726;2022-08-21T01:48:31;11.52;;;5.10;;
59006;SDS011;44792;52.760;6.726;2022-08-21T01:50:57;8.10;;;5.22;;
59006;SDS011;44792;52.760;6.726;2022-08-21T01:53:23;14.18;;;5.78;;
59006;SDS011;44792;52.760;6.726;2022-08-21T01:55:49;9.52;;;5.70;;
59006;SDS011;44792;52.760;6.726;2022-08-21T01:58:15;11.32;;;5.38;;
59006;SDS011;44792;52.760;6.726;2022-08-21T02:00:40;9.25;;;5.82;;
59006;SDS011;44792;52.760;6.726;2022-08-21T02:03:06;10.88;;;5.70;;
59006;SDS011;44792;52.760;6.726;2022-08-21T02:05:32;11.35;;;5.80;;
59006;SDS011;44792;52.760;6.726;2022-08-21T02:07:58;15.73;;;5.82;;
59006;SDS011;44792;52.760;6.726;2022-08-21T02:10:28;33.53;;;6.90;;
59006;SDS011;44792;52.760;6.726;2022-08-21T02:12:55;12.15;;;6.93;;
59006;SDS011;44792;52.760;6.726;2022-08-21T02:15:21;14.32;;;6.05;;
59006;SDS011;44792;52.760;6.726;2022-08-21T02:17:49;8.40;;;5.63;;
59006;SDS011;44792;52.760;6.726;2022-08-21T02:20:20;13.73;;;6.40;;
59006;SDS011;44792;52.760;6.726;2022-08-21T02:22:49;11.48;;;5.93;;
59006;SDS011;44792;52.760;6.726;2022-08-21T02:25:15;10.32;;;6.15;;
59006;SDS011;44792;52.760;6.726;2022-08-21T02:27:42;9.00;;;6.07;;
59006;SDS011;44792;52.760;6.726;2022-08-21T02:30:12;9.70;;;5.85;;
59006;SDS011;44792;52.760;6.726;2022-08-21T02:32:40;9.60;;;6.13;;
59006;SDS011;44792;52.760;6.726;2022-08-21T02:35:07;11.63;;;5.78;;
59006;SDS011;44792;52.760;6.726;2022-08-21T02:37:34;11.23;;;6.18;;
59006;SDS011;44792;52.760;6.726;2022-08-21T02:40:13;10.13;;;6.20;;
59006;SDS011;44792;52.760;6.726;2022-08-21T02:42:39;9.70;;;6.43;;
59006;SDS011;44792;52.760;6.726;2022-08-21T02:45:05;11.13;;;6.15;;
59006;SDS011;44792;52.760;6.726;2022-08-21T02:47:32;11.23;;;6.30;;
59006;SDS011;44792;52.760;6.726;2022-08-21T02:49:58;11.85;;;6.47;;
59006;SDS011;44792;52.760;6.726;2022-08-21T02:52:23;11.43;;;6.20;;
59006;SDS011;44792;52.760;6.726;2022-08-21T02:54:49;12.30;;;6.53;;
59006;SDS011;44792;52.760;6.726;2022-08-21T02:57:15;13.25;;;7.28;;
59006;SDS011;44792;52.760;6.726;2022-08-21T02:59:41;12.23;;;6.45;;
59006;SDS011;44792;52.760;6.726;2022-08-21T03:02:06;11.13;;;6.30;;
59006;SDS011;44792;52.760;6.726;2022-08-21T03:04:32;9.10;;;6.15;;
59006;SDS011;44792;52.760;6.726;2022-08-21T03:06:58;10.30;;;6.20;;
59006;SDS011;44792;52.760;6.726;2022-08-21T03:09:23;13.63;;;5.95;;
59006;SDS011;44792;52.760;6.726;2022-08-21T03:11:50;11.68;;;5.38;;
59006;SDS011;44792;52.760;6.726;2022-08-21T03:14:16;8.43;;;6.53;;
59006;SDS011;44792;52.760;6.726;2022-08-21T03:16:42;11.00;;;6.30;;
59006;SDS011;44792;52.760;6.726;2022-08-21T03:19:08;13.63;;;7.40;;
59006;SDS011;44792;52.760;6.726;2022-08-21T03:21:34;9.75;;;6.70;;
59006;SDS011;44792;52.760;6.726;2022-08-21T03:24:00;12.00;;;6.50;;
59006;SDS011;44792;52.760;6.726;2022-08-21T03:26:26;11.98;;;6.35;;
59006;SDS011;44792;52.760;6.726;2022-08-21T03:28:51;10.27;;;6.47;;
59006;SDS011;44792;52.760;6.726;2022-08-21T03:31:17;12.35;;;6.80;;
59006;SDS011;44792;52.760;6.726;2022-08-21T03:33:43;9.07;;;6.95;;
59006;SDS011;44792;52.760;6.726;2022-08-21T03:36:09;9.88;;;6.20;;
59006;SDS011;44792;52.760;6.726;2022-08-21T03:38:35;14.93;;;6.35;;
59006;SDS011;44792;52.760;6.726;2022-08-21T03:41:02;8.43;;;6.22;;
59006;SDS011;44792;52.760;6.726;2022-08-21T03:43:29;10.90;;;6.00;;
59006;SDS011;44792;52.760;6.726;2022-08-21T03:45:54;8.68;;;6.25;;
59006;SDS011;44792;52.760;6.726;2022-08-21T03:48:20;8.88;;;5.80;;
59006;SDS011;44792;52.760;6.726;2022-08-21T03:50:46;7.80;;;5.40;;
59006;SDS011;44792;52.760;6.726;2022-08-21T03:53:12;10.63;;;6.05;;
59006;SDS011;44792;52.760;6.726;2022-08-21T03:55:39;9.23;;;5.85;;
59006;SDS011;44792;52.760;6.726;2022-08-21T03:58:06;13.05;;;6.45;;
59006;SDS011;44792;52.760;6.726;2022-08-21T04:00:32;7.00;;;4.97;;
59006;SDS011;44792;52.760;6.726;2022-08-21T04:02:57;8.38;;;5.82;;
59006;SDS011;44792;52.760;6.726;2022-08-21T04:05:23;12.57;;;6.05;;
59006;SDS011;44792;52.760;6.726;2022-08-21T04:07:55;8.23;;;5.80;;
59006;SDS011;44792;52.760;6.726;2022-08-21T04:10:23;8.82;;;5.90;;
59006;SDS011;44792;52.760;6.726;2022-08-21T04:12:49;9.90;;;6.43;;
59006;SDS011;44792;52.760;6.726;2022-08-21T04:15:15;10.07;;;6.22;;
59006;SDS011;44792;52.760;6.726;2022-08-21T04:17:41;11.60;;;5.85;;
59006;SDS011;44792;52.760;6.726;2022-08-21T04:20:07;10.85;;;6.25;;
59006;SDS011;44792;52.760;6.726;2022-08-21T04:22:33;10.63;;;7.20;;
59006;SDS011;44792;52.760;6.726;2022-08-21T04:24:59;11.18;;;6.68;;
59006;SDS011;44792;52.760;6.726;2022-08-21T04:27:24;12.38;;;6.88;;
59006;SDS011;44792;52.760;6.726;2022-08-21T04:29:50;9.93;;;7.10;;
59006;SDS011;44792;52.760;6.726;2022-08-21T04:32:22;9.32;;;7.07;;
59006;SDS011;44792;52.760;6.726;2022-08-21T04:34:49;14.70;;;6.95;;
59006;SDS011;44792;52.760;6.726;2022-08-21T04:37:15;13.20;;;6.72;;
59006;SDS011;44792;52.760;6.726;2022-08-21T04:39:41;9.85;;;7.55;;
59006;SDS011;44792;52.760;6.726;2022-08-21T04:42:06;10.50;;;7.13;;
59006;SDS011;44792;52.760;6.726;2022-08-21T04:44:34;16.92;;;7.10;;
59006;SDS011;44792;52.760;6.726;2022-08-21T04:46:59;11.60;;;6.95;;
59006;SDS011;44792;52.760;6.726;2022-08-21T04:49:25;10.75;;;7.18;;
59006;SDS011;44792;52.760;6.726;2022-08-21T04:51:51;9.32;;;6.68;;
59006;SDS011;44792;52.760;6.726;2022-08-21T04:54:18;9.48;;;6.45;;
59006;SDS011;44792;52.760;6.726;2022-08-21T04:56:47;11.38;;;6.43;;
59006;SDS011;44792;52.760;6.726;2022-08-21T04:59:21;11.77;;;7.22;;
59006;SDS011;44792;52.760;6.726;2022-08-21T05:01:49;10.13;;;7.28;;
59006;SDS011;44792;52.760;6.726;2022-08-21T05:04:18;15.68;;;7.00;;
59006;SDS011;44792;52.760;6.726;2022-08-21T05:06:47;11.43;;;7.70;;
59006;SDS011;44792;52.760;6.726;2022-08-21T05:09:15;13.40;;;7.50;;
59006;SDS011;44792;52.760;6.726;2022-08-21T05:11:43;15.05;;;8.10;;
59006;SDS011;44792;52.760;6.726;2022-08-21T05:14:09;13.70;;;7.65;;
59006;SDS011;44792;52.760;6.726;2022-08-21T05:16:36;15.68;;;7.28;;
59006;SDS011;44792;52.760;6.726;2022-08-21T05:19:02;10.80;;;7.03;;
59006;SDS011;44792;52.760;6.726;2022-08-21T05:21:27;13.18;;;7.68;;
59006;SDS011;44792;52.760;6.726;2022-08-21T05:23:53;10.77;;;6.68;;
59006;SDS011;44792;52.760;6.726;2022-08-21T05:26:18;13.50;;;7.60;;
59006;SDS011;44792;52.760;6.726;2022-08-21T05:28:44;10.73;;;6.95;;
59006;SDS011;44792;52.760;6.726;2022-08-21T05:31:09;13.38;;;7.45;;
59006;SDS011;44792;52.760;6.726;2022-08-21T05:33:35;9.65;;;6.85;;
59006;SDS011;44792;52.760;6.726;2022-08-21T05:36:01;13.10;;;7.50;;
59006;SDS011;44792;52.760;6.726;2022-08-21T05:38:26;13.50;;;7.45;;
59006;SDS011;44792;52.760;6.726;2022-08-21T05:40:53;10.43;;;6.93;;
59006;SDS011;44792;52.760;6.726;2022-08-21T05:43:19;13.27;;;6.88;;
59006;SDS011;44792;52.760;6.726;2022-08-21T05:45:45;10.98;;;6.53;;
59006;SDS011;44792;52.760;6.726;2022-08-21T05:48:12;13.05;;;7.22;;
59006;SDS011;44792;52.760;6.726;2022-08-21T05:50:40;14.90;;;7.25;;
59006;SDS011;44792;52.760;6.726;2022-08-21T05:53:06;10.80;;;7.30;;
59006;SDS011;44792;52.760;6.726;2022-08-21T05:55:32;15.05;;;6.72;;
59006;SDS011;44792;52.760;6.726;2022-08-21T05:57:58;9.30;;;6.38;;
59006;SDS011;44792;52.760;6.726;2022-08-21T06:00:24;10.82;;;6.45;;
59006;SDS011;44792;52.760;6.726;2022-08-21T06:02:50;15.52;;;6.72;;
59006;SDS011;44792;52.760;6.726;2022-08-21T06:05:16;9.90;;;6.03;;
59006;SDS011;44792;52.760;6.726;2022-08-21T06:07:42;9.57;;;6.05;;
59006;SDS011;44792;52.760;6.726;2022-08-21T06:10:08;8.80;;;5.68;;
59006;SDS011;44792;52.760;6.726;2022-08-21T06:12:34;11.60;;;6.07;;
59006;SDS011;44792;52.760;6.726;2022-08-21T06:14:59;11.40;;;5.65;;
59006;SDS011;44792;52.760;6.726;2022-08-21T06:17:25;11.50;;;5.68;;
59006;SDS011;44792;52.760;6.726;2022-08-21T06:19:51;8.30;;;5.63;;
59006;SDS011;44792;52.760;6.726;2022-08-21T06:22:17;11.30;;;6.00;;
59006;SDS011;44792;52.760;6.726;2022-08-21T06:24:43;15.93;;;5.75;;
59006;SDS011;44792;52.760;6.726;2022-08-21T06:27:09;13.00;;;5.18;;
59006;SDS011;44792;52.760;6.726;2022-08-21T06:29:35;12.20;;;5.97;;
59006;SDS011;44792;52.760;6.726;2022-08-21T06:32:00;9.88;;;5.47;;
59006;SDS011;44792;52.760;6.726;2022-08-21T06:34:27;8.70;;;5.15;;
59006;SDS011;44792;52.760;6.726;2022-08-21T06:36:53;8.95;;;4.90;;
59006;SDS011;44792;52.760;6.726;2022-08-21T06:39:18;11.35;;;5.00;;
59006;SDS011;44792;52.760;6.726;2022-08-21T06:41:44;9.70;;;5.03;;
59006;SDS011;44792;52.760;6.726;2022-08-21T06:44:10;10.88;;;5.03;;
59006;SDS011;44792;52.760;6.726;2022-08-21T06:46:36;12.15;;;4.65;;
59006;SDS011;44792;52.760;6.726;2022-08-21T06:49:01;15.40;;;4.82;;
59006;SDS011;44792;52.760;6.726;2022-08-21T06:51:27;9.02;;;4.47;;
59006;SDS011;44792;52.760;6.726;2022-08-21T06:53:53;10.88;;;5.15;;
59006;SDS011;44792;52.760;6.726;2022-08-21T06:56:19;8.82;;;4.63;;
59006;SDS011;44792;52.760;6.726;2022-08-21T06:58:44;9.95;;;4.32;;
59006;SDS011;44792;52.760;6.726;2022-08-21T07:01:10;10.35;;;4.88;;
59006;SDS011;44792;52.760;6.726;2022-08-21T07:03:37;7.13;;;4.00;;
59006;SDS011;44792;52.760;6.726;2022-08-21T07:06:05;9.25;;;4.45;;
59006;SDS011;44792;52.760;6.726;2022-08-21T07:08:31;12.38;;;4.65;;
59006;SDS011;44792;52.760;6.726;2022-08-21T07:10:58;12.25;;;4.80;;
59006;SDS011;44792;52.760;6.726;2022-08-21T07:13:25;12.05;;;4.80;;
59006;SDS011;44792;52.760;6.726;2022-08-21T07:15:51;12.70;;;4.90;;
59006;SDS011;44792;52.760;6.726;2022-08-21T07:18:17;11.27;;;5.07;;
59006;SDS011;44792;52.760;6.726;2022-08-21T07:20:42;12.60;;;4.97;;
59006;SDS011;44792;52.760;6.726;2022-08-21T07:23:09;15.40;;;4.88;;
59006;SDS011;44792;52.760;6.726;2022-08-21T07:25:37;13.13;;;5.05;;
59006;SDS011;44792;52.760;6.726;2022-08-21T07:28:03;10.63;;;4.50;;
59006;SDS011;44792;52.760;6.726;2022-08-21T07:30:29;11.13;;;5.03;;
59006;SDS011;44792;52.760;6.726;2022-08-21T07:32:55;15.50;;;4.55;;
59006;SDS011;44792;52.760;6.726;2022-08-21T07:35:21;13.30;;;5.03;;
59006;SDS011;44792;52.760;6.726;2022-08-21T07:37:47;16.70;;;5.57;;
59006;SDS011;44792;52.760;6.726;2022-08-21T07:40:13;17.05;;;4.88;;
59006;SDS011;44792;52.760;6.726;2022-08-21T07:42:43;12.65;;;4.78;;
59006;SDS011;44792;52.760;6.726;2022-08-21T07:45:11;12.82;;;4.60;;
59006;SDS011;44792;52.760;6.726;2022-08-21T07:47:37;8.32;;;4.10;;
59006;SDS011;44792;52.760;6.726;2022-08-21T07:50:04;14.45;;;5.38;;
59006;SDS011;44792;52.760;6.726;2022-08-21T07:52:31;18.10;;;4.57;;
59006;SDS011;44792;52.760;6.726;2022-08-21T07:54:57;14.07;;;3.90;;
59006;SDS011;44792;52.760;6.726;2022-08-21T07:57:23;14.20;;;5.00;;
59006;SDS011;44792;52.760;6.726;2022-08-21T07:59:48;13.32;;;4.30;;
59006;SDS011;44792;52.760;6.726;2022-08-21T08:02:21;11.35;;;4.55;;
59006;SDS011;44792;52.760;6.726;2022-08-21T08:04:48;11.23;;;3.90;;
59006;SDS011;44792;52.760;6.726;2022-08-21T08:07:14;13.68;;;4.00;;
59006;SDS011;44792;52.760;6.726;2022-08-21T08:09:40;11.10;;;3.92;;
59006;SDS011;44792;52.760;6.726;2022-08-21T08:12:05;8.75;;;3.45;;
59006;SDS011;44792;52.760;6.726;2022-08-21T08:14:31;10.55;;;3.10;;
59006;SDS011;44792;52.760;6.726;2022-08-21T08:16:57;9.32;;;3.90;;
59006;SDS011;44792;52.760;6.726;2022-08-21T08:19:22;10.57;;;3.20;;
59006;SDS011;44792;52.760;6.726;2022-08-21T08:21:49;8.82;;;3.38;;
59006;SDS011;44792;52.760;6.726;2022-08-21T08:24:14;9.75;;;3.15;;
59006;SDS011;44792;52.760;6.726;2022-08-21T08:26:40;14.13;;;3.30;;
59006;SDS011;44792;52.760;6.726;2022-08-21T08:29:05;7.03;;;3.22;;
59006;SDS011;44792;52.760;6.726;2022-08-21T08:31:31;10.68;;;3.60;;
59006;SDS011;44792;52.760;6.726;2022-08-21T08:33:57;10.55;;;3.22;;
59006;SDS011;44792;52.760;6.726;2022-08-21T08:36:30;10.73;;;3.30;;
59006;SDS011;44792;52.760;6.726;2022-08-21T08:38:57;11.93;;;3.30;;
59006;SDS011;44792;52.760;6.726;2022-08-21T08:41:23;9.05;;;2.88;;
59006;SDS011;44792;52.760;6.726;2022-08-21T08:43:52;11.60;;;2.90;;
59006;SDS011;44792;52.760;6.726;2022-08-21T08:46:21;9.38;;;3.22;;
59006;SDS011;44792;52.760;6.726;2022-08-21T08:48:58;11.10;;;2.45;;
59006;SDS011;44792;52.760;6.726;2022-08-21T08:51:45;8.68;;;3.42;;
59006;SDS011;44792;52.760;6.726;2022-08-21T08:54:31;13.45;;;3.50;;
59006;SDS011;44792;52.760;6.726;2022-08-21T08:57:07;12.43;;;3.55;;
59006;SDS011;44792;52.760;6.726;2022-08-21T08:59:41;12.20;;;3.15;;
59006;SDS011;44792;52.760;6.726;2022-08-21T09:02:11;9.93;;;2.75;;
59006;SDS011;44792;52.760;6.726;2022-08-21T09:04:37;9.85;;;3.00;;
59006;SDS011;44792;52.760;6.726;2022-08-21T09:07:16;8.27;;;3.35;;
59006;SDS011;44792;52.760;6.726;2022-08-21T09:10:20;10.70;;;3.22;;
59006;SDS011;44792;52.760;6.726;2022-08-21T09:15:36;12.60;;;2.90;;
59006;SDS011;44792;52.760;6.726;2022-08-21T09:27:09;13.25;;;2.90;;
59006;SDS011;44792;52.760;6.726;2022-08-21T09:29:38;10.15;;;2.30;;
59006;SDS011;44792;52.760;6.726;2022-08-21T09:32:17;10.45;;;2.75;;
59006;SDS011;44792;52.760;6.726;2022-08-21T09:34:57;9.18;;;3.20;;
59006;SDS011;44792;52.760;6.726;2022-08-21T09:37:23;9.48;;;2.83;;
59006;SDS011;44792;52.760;6.726;2022-08-21T09:39:50;12.70;;;3.03;;
59006;SDS011;44792;52.760;6.726;2022-08-21T09:42:23;8.55;;;2.72;;
59006;SDS011;44792;52.760;6.726;2022-08-21T09:45:04;10.70;;;2.35;;
59006;SDS011;44792;52.760;6.726;2022-08-21T09:47:35;9.23;;;2.33;;
59006;SDS011;44792;52.760;6.726;2022-08-21T09:50:09;7.20;;;2.53;;
59006;SDS011;44792;52.760;6.726;2022-08-21T09:52:45;7.38;;;2.72;;
59006;SDS011;44792;52.760;6.726;2022-08-21T09:55:23;11.02;;;2.17;;
59006;SDS011;44792;52.760;6.726;2022-08-21T09:58:19;8.75;;;2.72;;
59006;SDS011;44792;52.760;6.726;2022-08-21T10:00:45;11.57;;;2.45;;
59006;SDS011;44792;52.760;6.726;2022-08-21T10:03:23;8.80;;;2.40;;
59006;SDS011;44792;52.760;6.726;2022-08-21T10:06:04;8.65;;;2.10;;
59006;SDS011;44792;52.760;6.726;2022-08-21T10:08:33;7.28;;;1.90;;
59006;SDS011;44792;52.760;6.726;2022-08-21T10:11:08;7.22;;;2.05;;
59006;SDS011;44792;52.760;6.726;2022-08-21T10:16:59;9.57;;;2.42;;
59006;SDS011;44792;52.760;6.726;2022-08-21T10:22:19;6.40;;;2.33;;
59006;SDS011;44792;52.760;6.726;2022-08-21T10:25:00;11.40;;;2.33;;
59006;SDS011;44792;52.760;6.726;2022-08-21T10:27:44;9.55;;;2.22;;
59006;SDS011;44792;52.760;6.726;2022-08-21T10:30:13;8.27;;;2.20;;
59006;SDS011;44792;52.760;6.726;2022-08-21T10:32:54;8.43;;;2.20;;
59006;SDS011;44792;52.760;6.726;2022-08-21T10:35:41;5.40;;;1.98;;
59006;SDS011;44792;52.760;6.726;2022-08-21T10:41:05;6.57;;;2.00;;
59006;SDS011;44792;52.760;6.726;2022-08-21T10:46:53;6.00;;;1.95;;
59006;SDS011;44792;52.760;6.726;2022-08-21T10:54:46;6.22;;;1.80;;
59006;SDS011;44792;52.760;6.726;2022-08-21T11:00:33;6.30;;;1.55;;
59006;SDS011;44792;52.760;6.726;2022-08-21T11:03:24;9.90;;;1.67;;
59006;SDS011;44792;52.760;6.726;2022-08-21T11:06:15;12.43;;;1.80;;
59006;SDS011;44792;52.760;6.726;2022-08-21T11:08:58;11.73;;;1.92;;
59006;SDS011;44792;52.760;6.726;2022-08-21T11:11:35;7.13;;;1.65;;
59006;SDS011;44792;52.760;6.726;2022-08-21T11:14:19;8.35;;;1.40;;
59006;SDS011;44792;52.760;6.726;2022-08-21T11:17:00;4.70;;;1.30;;
59006;SDS011;44792;52.760;6.726;2022-08-21T11:19:35;6.97;;;1.70;;
59006;SDS011;44792;52.760;6.726;2022-08-21T11:22:11;9.43;;;2.10;;
59006;SDS011;44792;52.760;6.726;2022-08-21T11:27:42;5.90;;;1.45;;
59006;SDS011;44792;52.760;6.726;2022-08-21T11:30:19;6.22;;;1.63;;
59006;SDS011;44792;52.760;6.726;2022-08-21T11:33:10;11.15;;;1.77;;
59006;SDS011;44792;52.760;6.726;2022-08-21T11:36:00;6.07;;;1.80;;
59006;SDS011;44792;52.760;6.726;2022-08-21T11:38:34;8.30;;;1.52;;
59006;SDS011;44792;52.760;6.726;2022-08-21T11:41:17;5.90;;;1.85;;
59006;SDS011;44792;52.760;6.726;2022-08-21T11:44:08;6.60;;;1.90;;
59006;SDS011;44792;52.760;6.726;2022-08-21T11:52:51;6.30;;;1.73;;
59006;SDS011;44792;52.760;6.726;2022-08-21T11:55:27;8.90;;;2.10;;
59006;SDS011;44792;52.760;6.726;2022-08-21T11:57:55;5.75;;;1.70;;
59006;SDS011;44792;52.760;6.726;2022-08-21T12:00:33;8.88;;;1.92;;
59006;SDS011;44792;52.760;6.726;2022-08-21T12:03:13;7.10;;;1.60;;
59006;SDS011;44792;52.760;6.726;2022-08-21T12:05:46;8.68;;;1.40;;
59006;SDS011;44792;52.760;6.726;2022-08-21T12:08:27;6.93;;;1.65;;
59006;SDS011;44792;52.760;6.726;2022-08-21T12:11:00;9.65;;;1.70;;
59006;SDS011;44792;52.760;6.726;2022-08-21T12:14:13;12.05;;;2.30;;
59006;SDS011;44792;52.760;6.726;2022-08-21T12:16:45;9.77;;;1.75;;
59006;SDS011;44792;52.760;6.726;2022-08-21T12:19:13;8.38;;;1.88;;
59006;SDS011;44792;52.760;6.726;2022-08-21T12:21:50;5.78;;;1.52;;
59006;SDS011;44792;52.760;6.726;2022-08-21T12:27:00;7.65;;;1.90;;
59006;SDS011;44792;52.760;6.726;2022-08-21T12:29:38;7.90;;;1.67;;
59006;SDS011;44792;52.760;6.726;2022-08-21T12:34:42;6.68;;;1.67;;
59006;SDS011;44792;52.760;6.726;2022-08-21T12:37:24;8.35;;;1.63;;
59006;SDS011;44792;52.760;6.726;2022-08-21T12:39:57;9.07;;;1.90;;
59006;SDS011;44792;52.760;6.726;2022-08-21T12:42:34;8.93;;;1.67;;
59006;SDS011;44792;52.760;6.726;2022-08-21T12:45:11;9.55;;;1.98;;
59006;SDS011;44792;52.760;6.726;2022-08-21T12:50:23;7.03;;;1.52;;
59006;SDS011;44792;52.760;6.726;2022-08-21T12:53:10;6.50;;;1.60;;
59006;SDS011;44792;52.760;6.726;2022-08-21T12:55:50;9.23;;;2.20;;
59006;SDS011;44792;52.760;6.726;2022-08-21T12:58:23;7.35;;;1.55;;
59006;SDS011;44792;52.760;6.726;2022-08-21T13:00:57;5.97;;;1.92;;
59006;SDS011;44792;52.760;6.726;2022-08-21T13:03:30;8.85;;;1.80;;
59006;SDS011;44792;52.760;6.726;2022-08-21T13:06:00;9.02;;;1.90;;
59006;SDS011;44792;52.760;6.726;2022-08-21T13:08:28;6.88;;;2.08;;
59006;SDS011;44792;52.760;6.726;2022-08-21T13:10:56;8.77;;;1.90;;
59006;SDS011;44792;52.760;6.726;2022-08-21T13:13:26;9.63;;;1.73;;
59006;SDS011;44792;52.760;6.726;2022-08-21T13:15:59;11.40;;;2.05;;
59006;SDS011;44792;52.760;6.726;2022-08-21T13:18:30;8.15;;;2.10;;
59006;SDS011;44792;52.760;6.726;2022-08-21T13:21:02;6.35;;;2.05;;
59006;SDS011;44792;52.760;6.726;2022-08-21T13:23:34;8.82;;;1.80;;
59006;SDS011;44792;52.760;6.726;2022-08-21T13:26:00;9.35;;;1.73;;
59006;SDS011;44792;52.760;6.726;2022-08-21T13:28:34;6.45;;;1.50;;
59006;SDS011;44792;52.760;6.726;2022-08-21T13:31:05;11.07;;;1.83;;
59006;SDS011;44792;52.760;6.726;2022-08-21T13:33:35;8.13;;;1.98;;
59006;SDS011;44792;52.760;6.726;2022-08-21T13:38:33;7.32;;;1.77;;
59006;SDS011;44792;52.760;6.726;2022-08-21T13:43:35;11.02;;;2.45;;
59006;SDS011;44792;52.760;6.726;2022-08-21T13:46:02;10.98;;;2.42;;
59006;SDS011;44792;52.760;6.726;2022-08-21T13:48:34;5.22;;;2.13;;
59006;SDS011;44792;52.760;6.726;2022-08-21T13:51:01;8.27;;;2.10;;
59006;SDS011;44792;52.760;6.726;2022-08-21T13:55:58;7.90;;;1.88;;
59006;SDS011;44792;52.760;6.726;2022-08-21T13:58:26;6.13;;;1.60;;
59006;SDS011;44792;52.760;6.726;2022-08-21T14:01:15;7.70;;;2.13;;
59006;SDS011;44792;52.760;6.726;2022-08-21T14:03:48;4.95;;;1.70;;
59006;SDS011;44792;52.760;6.726;2022-08-21T14:06:17;9.07;;;2.00;;
59006;SDS011;44792;52.760;6.726;2022-08-21T14:11:56;10.48;;;1.92;;
59006;SDS011;44792;52.760;6.726;2022-08-21T14:14:28;9.25;;;2.00;;
59006;SDS011;44792;52.760;6.726;2022-08-21T14:17:07;9.10;;;2.05;;
59006;SDS011;44792;52.760;6.726;2022-08-21T14:19:40;6.28;;;2.03;;
59006;SDS011;44792;52.760;6.726;2022-08-21T14:22:23;8.98;;;1.73;;
59006;SDS011;44792;52.760;6.726;2022-08-21T14:24:58;5.32;;;1.70;;
59006;SDS011;44792;52.760;6.726;2022-08-21T14:27:36;4.63;;;2.20;;
59006;SDS011;44792;52.760;6.726;2022-08-21T14:32:54;10.30;;;2.20;;
59006;SDS011;44792;52.760;6.726;2022-08-21T14:35:22;8.18;;;2.00;;
59006;SDS011;44792;52.760;6.726;2022-08-21T14:37:48;12.68;;;2.42;;
59006;SDS011;44792;52.760;6.726;2022-08-21T14:40:19;6.40;;;1.73;;
59006;SDS011;44792;52.760;6.726;2022-08-21T14:42:46;7.35;;;2.03;;
59006;SDS011;44792;52.760;6.726;2022-08-21T14:45:23;12.35;;;2.15;;
59006;SDS011;44792;52.760;6.726;2022-08-21T14:47:52;7.25;;;1.77;;
59006;SDS011;44792;52.760;6.726;2022-08-21T14:50:18;13.45;;;1.60;;
59006;SDS011;44792;52.760;6.726;2022-08-21T14:52:44;7.45;;;1.65;;
59006;SDS011;44792;52.760;6.726;2022-08-21T14:55:11;10.75;;;1.80;;
59006;SDS011;44792;52.760;6.726;2022-08-21T14:57:50;5.93;;;1.73;;
59006;SDS011;44792;52.760;6.726;2022-08-21T15:00:18;8.43;;;1.83;;
59006;SDS011;44792;52.760;6.726;2022-08-21T15:02:47;9.80;;;2.10;;
59006;SDS011;44792;52.760;6.726;2022-08-21T15:05:14;10.20;;;2.00;;
59006;SDS011;44792;52.760;6.726;2022-08-21T15:07:40;5.15;;;1.88;;
59006;SDS011;44792;52.760;6.726;2022-08-21T15:10:06;7.85;;;1.98;;
59006;SDS011;44792;52.760;6.726;2022-08-21T15:12:32;11.02;;;2.33;;
59006;SDS011;44792;52.760;6.726;2022-08-21T15:14:58;8.23;;;2.42;;
59006;SDS011;44792;52.760;6.726;2022-08-21T15:17:23;6.53;;;2.20;;
59006;SDS011;44792;52.760;6.726;2022-08-21T15:19:50;12.45;;;4.25;;
59006;SDS011;44792;52.760;6.726;2022-08-21T15:22:16;13.25;;;2.47;;
59006;SDS011;44792;52.760;6.726;2022-08-21T15:24:41;12.55;;;2.00;;
59006;SDS011;44792;52.760;6.726;2022-08-21T15:27:08;10.25;;;2.00;;
59006;SDS011;44792;52.760;6.726;2022-08-21T15:29:35;6.65;;;2.40;;
59006;SDS011;44792;52.760;6.726;2022-08-21T15:32:03;8.85;;;2.40;;
59006;SDS011;44792;52.760;6.726;2022-08-21T15:34:42;9.07;;;2.90;;
59006;SDS011;44792;52.760;6.726;2022-08-21T15:37:08;6.63;;;2.15;;
59006;SDS011;44792;52.760;6.726;2022-08-21T15:39:34;8.70;;;2.00;;
59006;SDS011;44792;52.760;6.726;2022-08-21T15:42:00;11.50;;;2.20;;
59006;SDS011;44792;52.760;6.726;2022-08-21T15:44:27;7.57;;;2.33;;
59006;SDS011;44792;52.760;6.726;2022-08-21T15:46:54;6.03;;;2.17;;
59006;SDS011;44792;52.760;6.726;2022-08-21T15:49:20;12.75;;;2.70;;
59006;SDS011;44792;52.760;6.726;2022-08-21T15:51:46;8.13;;;1.95;;
59006;SDS011;44792;52.760;6.726;2022-08-21T15:54:11;8.05;;;2.30;;
59006;SDS011;44792;52.760;6.726;2022-08-21T15:56:37;11.68;;;2.20;;
59006;SDS011;44792;52.760;6.726;2022-08-21T15:59:06;8.90;;;2.40;;